sensor_id;sensor_type;location;lat;lon;timestamp;temperature;humidity
76613;DHT22;65507;48.454;-2.058;2024-01-15T00:01:29;6.00;82.50
76613;DHT22;65507;48.454;-2.058;2024-01-15T00:03:54;5.90;82.50
76613;DHT22;65507;48.454;-2.058;2024-01-15T00:06:20;5.80;82.60
76613;DHT22;65507;48.454;-2.058;2024-01-15T00:08:46;5.80;82.80
76613;DHT22;65507;48.454;-2.058;2024-01-15T00:11:11;5.80;82.90
76613;DHT22;65507;48.454;-2.058;2024-01-15T00:13:37;5.70;83.00
76613;DHT22;65507;48.454;-2.058;2024-01-15T00:16:04;5.80;83.10
76613;DHT22;65507;48.454;-2.058;2024-01-15T00:18:30;5.70;83.10
76613;DHT22;65507;48.454;-2.058;2024-01-15T00:20:55;5.80;83.00
76613;DHT22;65507;48.454;-2.058;2024-01-15T00:23:22;5.80;83.00
76613;DHT22;65507;48.454;-2.058;2024-01-15T00:25:48;5.80;82.90
76613;DHT22;65507;48.454;-2.058;2024-01-15T00:28:13;5.90;82.90
76613;DHT22;65507;48.454;-2.058;2024-01-15T00:30:39;5.90;82.80
76613;DHT22;65507;48.454;-2.058;2024-01-15T00:33:05;5.90;82.80
76613;DHT22;65507;48.454;-2.058;2024-01-15T00:35:30;6.10;82.90
76613;DHT22;65507;48.454;-2.058;2024-01-15T00:37:56;5.90;82.70
76613;DHT22;65507;48.454;-2.058;2024-01-15T00:40:22;5.90;82.70
76613;DHT22;65507;48.454;-2.058;2024-01-15T00:42:47;6.00;82.80
76613;DHT22;65507;48.454;-2.058;2024-01-15T00:45:13;6.00;82.80
76613;DHT22;65507;48.454;-2.058;2024-01-15T00:47:39;6.00;82.70
76613;DHT22;65507;48.454;-2.058;2024-01-15T00:50:05;6.00;82.70
76613;DHT22;65507;48.454;-2.058;2024-01-15T00:52:31;6.00;82.80
76613;DHT22;65507;48.454;-2.058;2024-01-15T00:54:57;6.20;83.00
76613;DHT22;65507;48.454;-2.058;2024-01-15T00:57:22;6.30;83.10
76613;DHT22;65507;48.454;-2.058;2024-01-15T00:59:48;5.90;83.10
76613;DHT22;65507;48.454;-2.058;2024-01-15T01:02:14;5.80;83.20
76613;DHT22;65507;48.454;-2.058;2024-01-15T01:04:40;5.80;83.20
76613;DHT22;65507;48.454;-2.058;2024-01-15T01:07:06;5.80;83.20
76613;DHT22;65507;48.454;-2.058;2024-01-15T01:09:31;5.90;83.30
76613;DHT22;65507;48.454;-2.058;2024-01-15T01:11:57;5.90;83.20
76613;DHT22;65507;48.454;-2.058;2024-01-15T01:14:23;5.90;83.20
76613;DHT22;65507;48.454;-2.058;2024-01-15T01:16:49;5.80;83.20
76613;DHT22;65507;48.454;-2.058;2024-01-15T01:19:14;6.00;83.20
76613;DHT22;65507;48.454;-2.058;2024-01-15T01:21:40;5.80;83.20
76613;DHT22;65507;48.454;-2.058;2024-01-15T01:24:06;5.90;83.30
76613;DHT22;65507;48.454;-2.058;2024-01-15T01:26:31;5.90;83.20
76613;DHT22;65507;48.454;-2.058;2024-01-15T01:28:57;5.90;83.10
76613;DHT22;65507;48.454;-2.058;2024-01-15T01:31:23;5.90;83.10
76613;DHT22;65507;48.454;-2.058;2024-01-15T01:33:49;5.90;83.10
76613;DHT22;65507;48.454;-2.058;2024-01-15T01:36:15;5.90;83.10
76613;DHT22;65507;48.454;-2.058;2024-01-15T01:38:41;5.90;83.00
76613;DHT22;65507;48.454;-2.058;2024-01-15T01:41:06;5.90;83.00
76613;DHT22;65507;48.454;-2.058;2024-01-15T01:43:33;6.00;83.00
76613;DHT22;65507;48.454;-2.058;2024-01-15T01:46:00;6.00;82.90
76613;DHT22;65507;48.454;-2.058;2024-01-15T01:48:26;6.00;83.00
76613;DHT22;65507;48.454;-2.058;2024-01-15T01:50:57;6.00;83.00
76613;DHT22;65507;48.454;-2.058;2024-01-15T01:53:24;6.00;82.90
76613;DHT22;65507;48.454;-2.058;2024-01-15T01:55:51;6.00;82.90
76613;DHT22;65507;48.454;-2.058;2024-01-15T01:58:17;6.00;82.90
76613;DHT22;65507;48.454;-2.058;2024-01-15T02:00:43;6.00;82.80
76613;DHT22;65507;48.454;-2.058;2024-01-15T02:03:09;5.90;82.90
76613;DHT22;65507;48.454;-2.058;2024-01-15T02:05:35;6.00;83.10
76613;DHT22;65507;48.454;-2.058;2024-01-15T02:08:02;5.90;83.10
76613;DHT22;65507;48.454;-2.058;2024-01-15T02:10:27;6.00;83.10
76613;DHT22;65507;48.454;-2.058;2024-01-15T02:12:53;6.00;83.10
76613;DHT22;65507;48.454;-2.058;2024-01-15T02:15:19;6.00;83.00
76613;DHT22;65507;48.454;-2.058;2024-01-15T02:17:57;6.00;83.20
76613;DHT22;65507;48.454;-2.058;2024-01-15T02:20:23;6.00;83.40
76613;DHT22;65507;48.454;-2.058;2024-01-15T02:22:49;5.90;83.40
76613;DHT22;65507;48.454;-2.058;2024-01-15T02:25:15;5.90;83.60
76613;DHT22;65507;48.454;-2.058;2024-01-15T02:27:41;5.90;83.70
76613;DHT22;65507;48.454;-2.058;2024-01-15T02:30:08;5.90;83.60
76613;DHT22;65507;48.454;-2.058;2024-01-15T02:32:35;6.00;83.50
76613;DHT22;65507;48.454;-2.058;2024-01-15T02:35:01;6.00;83.40
76613;DHT22;65507;48.454;-2.058;2024-01-15T02:37:26;6.00;83.50
76613;DHT22;65507;48.454;-2.058;2024-01-15T02:39:52;6.00;83.40
76613;DHT22;65507;48.454;-2.058;2024-01-15T02:42:18;6.10;83.40
76613;DHT22;65507;48.454;-2.058;2024-01-15T02:44:43;6.10;83.40
76613;DHT22;65507;48.454;-2.058;2024-01-15T02:47:09;6.10;83.40
76613;DHT22;65507;48.454;-2.058;2024-01-15T02:49:35;6.30;83.50
76613;DHT22;65507;48.454;-2.058;2024-01-15T02:52:00;6.10;83.40
76613;DHT22;65507;48.454;-2.058;2024-01-15T02:54:26;6.10;83.30
76613;DHT22;65507;48.454;-2.058;2024-01-15T02:56:51;6.20;83.40
76613;DHT22;65507;48.454;-2.058;2024-01-15T02:59:17;6.20;83.40
76613;DHT22;65507;48.454;-2.058;2024-01-15T03:01:43;6.20;83.30
76613;DHT22;65507;48.454;-2.058;2024-01-15T03:04:08;6.20;83.40
76613;DHT22;65507;48.454;-2.058;2024-01-15T03:06:34;6.20;83.30
76613;DHT22;65507;48.454;-2.058;2024-01-15T03:08:59;6.20;83.40
76613;DHT22;65507;48.454;-2.058;2024-01-15T03:11:25;6.20;83.50
76613;DHT22;65507;48.454;-2.058;2024-01-15T03:13:51;6.20;83.50
76613;DHT22;65507;48.454;-2.058;2024-01-15T03:16:17;6.30;83.50
76613;DHT22;65507;48.454;-2.058;2024-01-15T03:18:45;6.30;83.50
76613;DHT22;65507;48.454;-2.058;2024-01-15T03:21:10;6.30;83.40
76613;DHT22;65507;48.454;-2.058;2024-01-15T03:23:36;6.30;83.40
76613;DHT22;65507;48.454;-2.058;2024-01-15T03:26:02;6.30;83.40
76613;DHT22;65507;48.454;-2.058;2024-01-15T03:28:27;6.30;83.40
76613;DHT22;65507;48.454;-2.058;2024-01-15T03:30:55;6.30;83.40
76613;DHT22;65507;48.454;-2.058;2024-01-15T03:33:21;6.40;83.50
76613;DHT22;65507;48.454;-2.058;2024-01-15T03:35:47;6.30;83.40
76613;DHT22;65507;48.454;-2.058;2024-01-15T03:38:12;6.30;83.40
76613;DHT22;65507;48.454;-2.058;2024-01-15T03:40:38;6.30;83.40
76613;DHT22;65507;48.454;-2.058;2024-01-15T03:43:04;6.30;83.40
76613;DHT22;65507;48.454;-2.058;2024-01-15T03:45:29;6.40;83.40
76613;DHT22;65507;48.454;-2.058;2024-01-15T03:47:55;6.40;83.40
76613;DHT22;65507;48.454;-2.058;2024-01-15T03:50:20;6.50;83.40
76613;DHT22;65507;48.454;-2.058;2024-01-15T03:52:46;6.50;83.30
76613;DHT22;65507;48.454;-2.058;2024-01-15T03:55:12;6.50;83.30
76613;DHT22;65507;48.454;-2.058;2024-01-15T03:57:37;6.40;83.20
76613;DHT22;65507;48.454;-2.058;2024-01-15T04:00:03;6.40;83.40
76613;DHT22;65507;48.454;-2.058;2024-01-15T04:02:29;6.40;83.50
76613;DHT22;65507;48.454;-2.058;2024-01-15T04:04:55;6.40;83.60
76613;DHT22;65507;48.454;-2.058;2024-01-15T04:07:23;6.50;83.70
76613;DHT22;65507;48.454;-2.058;2024-01-15T04:09:49;6.40;83.60
76613;DHT22;65507;48.454;-2.058;2024-01-15T04:12:15;6.50;83.70
76613;DHT22;65507;48.454;-2.058;2024-01-15T04:14:40;6.40;83.70
76613;DHT22;65507;48.454;-2.058;2024-01-15T04:17:06;6.50;83.70
76613;DHT22;65507;48.454;-2.058;2024-01-15T04:19:35;6.40;83.70
76613;DHT22;65507;48.454;-2.058;2024-01-15T04:22:00;6.40;83.70
76613;DHT22;65507;48.454;-2.058;2024-01-15T04:24:26;6.50;83.80
76613;DHT22;65507;48.454;-2.058;2024-01-15T04:26:51;6.50;83.80
76613;DHT22;65507;48.454;-2.058;2024-01-15T04:29:17;6.40;83.70
76613;DHT22;65507;48.454;-2.058;2024-01-15T04:31:43;6.50;83.70
76613;DHT22;65507;48.454;-2.058;2024-01-15T04:34:08;6.50;83.70
76613;DHT22;65507;48.454;-2.058;2024-01-15T04:36:43;6.50;83.70
76613;DHT22;65507;48.454;-2.058;2024-01-15T04:39:08;6.50;83.70
76613;DHT22;65507;48.454;-2.058;2024-01-15T04:41:34;6.50;83.80
76613;DHT22;65507;48.454;-2.058;2024-01-15T04:44:00;6.50;83.80
76613;DHT22;65507;48.454;-2.058;2024-01-15T04:46:26;6.50;83.80
76613;DHT22;65507;48.454;-2.058;2024-01-15T04:48:52;6.50;83.80
76613;DHT22;65507;48.454;-2.058;2024-01-15T04:51:18;6.50;83.80
76613;DHT22;65507;48.454;-2.058;2024-01-15T04:53:46;6.60;83.70
76613;DHT22;65507;48.454;-2.058;2024-01-15T04:56:12;6.60;83.70
76613;DHT22;65507;48.454;-2.058;2024-01-15T04:58:37;6.60;83.70
76613;DHT22;65507;48.454;-2.058;2024-01-15T05:01:03;6.60;83.60
76613;DHT22;65507;48.454;-2.058;2024-01-15T05:03:29;6.60;83.70
76613;DHT22;65507;48.454;-2.058;2024-01-15T05:05:55;6.60;83.70
76613;DHT22;65507;48.454;-2.058;2024-01-15T05:08:20;6.60;83.70
76613;DHT22;65507;48.454;-2.058;2024-01-15T05:10:47;6.60;83.70
76613;DHT22;65507;48.454;-2.058;2024-01-15T05:13:13;6.50;83.70
76613;DHT22;65507;48.454;-2.058;2024-01-15T05:15:38;6.50;83.70
76613;DHT22;65507;48.454;-2.058;2024-01-15T05:18:04;6.50;83.80
76613;DHT22;65507;48.454;-2.058;2024-01-15T05:20:30;6.50;83.80
76613;DHT22;65507;48.454;-2.058;2024-01-15T05:22:56;6.50;83.90
76613;DHT22;65507;48.454;-2.058;2024-01-15T05:25:22;6.50;83.90
76613;DHT22;65507;48.454;-2.058;2024-01-15T05:27:48;6.30;84.00
76613;DHT22;65507;48.454;-2.058;2024-01-15T05:30:14;6.20;84.20
76613;DHT22;65507;48.454;-2.058;2024-01-15T05:32:40;6.10;84.40
76613;DHT22;65507;48.454;-2.058;2024-01-15T05:35:05;6.10;84.70
76613;DHT22;65507;48.454;-2.058;2024-01-15T05:37:31;6.00;84.70
76613;DHT22;65507;48.454;-2.058;2024-01-15T05:39:57;6.00;84.70
76613;DHT22;65507;48.454;-2.058;2024-01-15T05:42:22;5.90;84.70
76613;DHT22;65507;48.454;-2.058;2024-01-15T05:44:48;5.90;84.70
76613;DHT22;65507;48.454;-2.058;2024-01-15T05:47:14;5.80;84.70
76613;DHT22;65507;48.454;-2.058;2024-01-15T05:49:40;5.80;84.70
76613;DHT22;65507;48.454;-2.058;2024-01-15T05:52:06;5.80;84.70
76613;DHT22;65507;48.454;-2.058;2024-01-15T05:54:31;5.80;84.70
76613;DHT22;65507;48.454;-2.058;2024-01-15T05:56:57;5.80;84.70
76613;DHT22;65507;48.454;-2.058;2024-01-15T05:59:23;5.80;84.70
76613;DHT22;65507;48.454;-2.058;2024-01-15T06:01:48;5.80;84.50
76613;DHT22;65507;48.454;-2.058;2024-01-15T06:04:14;5.90;84.50
76613;DHT22;65507;48.454;-2.058;2024-01-15T06:06:40;5.80;84.30
76613;DHT22;65507;48.454;-2.058;2024-01-15T06:09:05;5.90;84.40
76613;DHT22;65507;48.454;-2.058;2024-01-15T06:11:32;5.90;84.30
76613;DHT22;65507;48.454;-2.058;2024-01-15T06:13:58;5.80;84.30
76613;DHT22;65507;48.454;-2.058;2024-01-15T06:16:24;5.80;84.40
76613;DHT22;65507;48.454;-2.058;2024-01-15T06:18:50;5.90;84.40
76613;DHT22;65507;48.454;-2.058;2024-01-15T06:21:16;5.90;84.30
76613;DHT22;65507;48.454;-2.058;2024-01-15T06:23:42;5.90;84.30
76613;DHT22;65507;48.454;-2.058;2024-01-15T06:26:08;5.80;84.30
76613;DHT22;65507;48.454;-2.058;2024-01-15T06:28:33;5.80;84.30
76613;DHT22;65507;48.454;-2.058;2024-01-15T06:30:59;5.70;84.50
76613;DHT22;65507;48.454;-2.058;2024-01-15T06:33:25;5.70;84.60
76613;DHT22;65507;48.454;-2.058;2024-01-15T06:35:51;5.70;84.70
76613;DHT22;65507;48.454;-2.058;2024-01-15T06:38:16;5.60;84.70
76613;DHT22;65507;48.454;-2.058;2024-01-15T06:40:42;5.60;84.80
76613;DHT22;65507;48.454;-2.058;2024-01-15T06:43:14;5.60;85.00
76613;DHT22;65507;48.454;-2.058;2024-01-15T06:45:41;5.20;84.70
76613;DHT22;65507;48.454;-2.058;2024-01-15T06:48:06;5.60;85.00
76613;DHT22;65507;48.454;-2.058;2024-01-15T06:50:33;5.70;85.00
76613;DHT22;65507;48.454;-2.058;2024-01-15T06:52:58;5.70;85.00
76613;DHT22;65507;48.454;-2.058;2024-01-15T06:55:24;5.70;85.70
76613;DHT22;65507;48.454;-2.058;2024-01-15T06:57:51;5.80;84.70
76613;DHT22;65507;48.454;-2.058;2024-01-15T07:00:18;5.80;84.70
76613;DHT22;65507;48.454;-2.058;2024-01-15T07:02:45;5.80;85.60
76613;DHT22;65507;48.454;-2.058;2024-01-15T07:05:11;6.00;84.80
76613;DHT22;65507;48.454;-2.058;2024-01-15T07:07:36;5.80;84.80
76613;DHT22;65507;48.454;-2.058;2024-01-15T07:10:03;5.80;84.80
76613;DHT22;65507;48.454;-2.058;2024-01-15T07:12:29;5.80;84.90
76613;DHT22;65507;48.454;-2.058;2024-01-15T07:14:56;5.80;84.90
76613;DHT22;65507;48.454;-2.058;2024-01-15T07:17:22;5.80;84.80
76613;DHT22;65507;48.454;-2.058;2024-01-15T07:19:48;5.90;84.90
76613;DHT22;65507;48.454;-2.058;2024-01-15T07:22:14;5.80;85.00
76613;DHT22;65507;48.454;-2.058;2024-01-15T07:24:40;5.80;85.00
76613;DHT22;65507;48.454;-2.058;2024-01-15T07:27:06;5.90;85.10
76613;DHT22;65507;48.454;-2.058;2024-01-15T07:29:32;5.80;85.10
76613;DHT22;65507;48.454;-2.058;2024-01-15T07:31:58;5.80;85.10
76613;DHT22;65507;48.454;-2.058;2024-01-15T07:34:24;5.70;85.20
76613;DHT22;65507;48.454;-2.058;2024-01-15T07:36:50;5.70;85.30
76613;DHT22;65507;48.454;-2.058;2024-01-15T07:39:16;5.70;85.20
76613;DHT22;65507;48.454;-2.058;2024-01-15T07:41:42;5.70;85.30
76613;DHT22;65507;48.454;-2.058;2024-01-15T07:44:07;5.70;85.40
76613;DHT22;65507;48.454;-2.058;2024-01-15T07:46:33;5.70;85.30
76613;DHT22;65507;48.454;-2.058;2024-01-15T07:48:59;5.60;85.30
76613;DHT22;65507;48.454;-2.058;2024-01-15T07:51:25;5.60;85.40
76613;DHT22;65507;48.454;-2.058;2024-01-15T07:53:52;5.60;85.40
76613;DHT22;65507;48.454;-2.058;2024-01-15T07:56:18;5.60;85.40
76613;DHT22;65507;48.454;-2.058;2024-01-15T07:58:44;5.60;85.40
76613;DHT22;65507;48.454;-2.058;2024-01-15T08:01:10;5.60;85.20
76613;DHT22;65507;48.454;-2.058;2024-01-15T08:03:35;6.10;86.20
76613;DHT22;65507;48.454;-2.058;2024-01-15T08:06:01;5.70;84.90
76613;DHT22;65507;48.454;-2.058;2024-01-15T08:08:27;5.80;84.80
76613;DHT22;65507;48.454;-2.058;2024-01-15T08:10:53;5.80;84.70
76613;DHT22;65507;48.454;-2.058;2024-01-15T08:13:18;5.80;84.60
76613;DHT22;65507;48.454;-2.058;2024-01-15T08:15:46;5.90;84.60
76613;DHT22;65507;48.454;-2.058;2024-01-15T08:18:11;5.90;84.50
76613;DHT22;65507;48.454;-2.058;2024-01-15T08:20:37;6.10;84.50
76613;DHT22;65507;48.454;-2.058;2024-01-15T08:23:03;6.00;84.40
76613;DHT22;65507;48.454;-2.058;2024-01-15T08:25:29;6.00;84.30
76613;DHT22;65507;48.454;-2.058;2024-01-15T08:27:56;6.00;84.40
76613;DHT22;65507;48.454;-2.058;2024-01-15T08:30:22;6.10;84.30
76613;DHT22;65507;48.454;-2.058;2024-01-15T08:32:50;6.10;84.30
76613;DHT22;65507;48.454;-2.058;2024-01-15T08:35:16;6.10;84.20
76613;DHT22;65507;48.454;-2.058;2024-01-15T08:37:41;6.10;84.30
76613;DHT22;65507;48.454;-2.058;2024-01-15T08:40:07;6.20;84.30
76613;DHT22;65507;48.454;-2.058;2024-01-15T08:42:33;6.10;84.20
76613;DHT22;65507;48.454;-2.058;2024-01-15T08:44:59;6.10;84.30
76613;DHT22;65507;48.454;-2.058;2024-01-15T08:47:24;6.00;84.30
76613;DHT22;65507;48.454;-2.058;2024-01-15T08:49:51;6.00;84.30
76613;DHT22;65507;48.454;-2.058;2024-01-15T08:52:16;6.00;84.40
76613;DHT22;65507;48.454;-2.058;2024-01-15T08:54:42;6.00;84.30
76613;DHT22;65507;48.454;-2.058;2024-01-15T08:57:08;6.00;85.30
76613;DHT22;65507;48.454;-2.058;2024-01-15T08:59:33;6.40;84.50
76613;DHT22;65507;48.454;-2.058;2024-01-15T09:01:59;6.00;84.20
76613;DHT22;65507;48.454;-2.058;2024-01-15T09:04:25;6.10;84.20
76613;DHT22;65507;48.454;-2.058;2024-01-15T09:06:50;6.30;85.20
76613;DHT22;65507;48.454;-2.058;2024-01-15T09:09:16;6.10;84.10
76613;DHT22;65507;48.454;-2.058;2024-01-15T09:11:42;6.10;84.10
76613;DHT22;65507;48.454;-2.058;2024-01-15T09:14:08;6.20;84.10
76613;DHT22;65507;48.454;-2.058;2024-01-15T09:16:34;6.20;84.10
76613;DHT22;65507;48.454;-2.058;2024-01-15T09:19:00;6.30;84.00
76613;DHT22;65507;48.454;-2.058;2024-01-15T09:21:26;6.30;83.80
76613;DHT22;65507;48.454;-2.058;2024-01-15T09:23:51;6.30;83.70
76613;DHT22;65507;48.454;-2.058;2024-01-15T09:26:17;6.40;83.70
76613;DHT22;65507;48.454;-2.058;2024-01-15T09:28:43;6.40;83.60
76613;DHT22;65507;48.454;-2.058;2024-01-15T09:31:09;6.40;83.50
76613;DHT22;65507;48.454;-2.058;2024-01-15T09:33:34;6.50;83.70
76613;DHT22;65507;48.454;-2.058;2024-01-15T09:36:03;6.90;83.50
76613;DHT22;65507;48.454;-2.058;2024-01-15T09:38:30;6.60;83.30
76613;DHT22;65507;48.454;-2.058;2024-01-15T09:40:57;6.60;83.20
76613;DHT22;65507;48.454;-2.058;2024-01-15T09:43:23;6.70;83.20
76613;DHT22;65507;48.454;-2.058;2024-01-15T09:45:50;6.70;83.10
76613;DHT22;65507;48.454;-2.058;2024-01-15T09:48:16;6.80;83.10
76613;DHT22;65507;48.454;-2.058;2024-01-15T09:50:42;6.80;82.90
76613;DHT22;65507;48.454;-2.058;2024-01-15T09:53:09;6.80;82.90
76613;DHT22;65507;48.454;-2.058;2024-01-15T09:55:36;6.90;82.80
76613;DHT22;65507;48.454;-2.058;2024-01-15T09:58:03;6.90;82.80
76613;DHT22;65507;48.454;-2.058;2024-01-15T10:00:30;6.90;82.80
76613;DHT22;65507;48.454;-2.058;2024-01-15T10:02:58;7.00;82.90
76613;DHT22;65507;48.454;-2.058;2024-01-15T10:05:26;7.00;82.80
76613;DHT22;65507;48.454;-2.058;2024-01-15T10:07:54;7.10;82.80
76613;DHT22;65507;48.454;-2.058;2024-01-15T10:10:21;7.10;82.70
76613;DHT22;65507;48.454;-2.058;2024-01-15T10:12:47;7.10;82.60
76613;DHT22;65507;48.454;-2.058;2024-01-15T10:15:13;7.20;82.60
76613;DHT22;65507;48.454;-2.058;2024-01-15T10:17:40;7.20;82.50
76613;DHT22;65507;48.454;-2.058;2024-01-15T10:20:11;7.30;82.40
76613;DHT22;65507;48.454;-2.058;2024-01-15T10:22:43;7.70;82.50
76613;DHT22;65507;48.454;-2.058;2024-01-15T10:25:13;7.30;82.30
76613;DHT22;65507;48.454;-2.058;2024-01-15T10:27:42;7.40;82.20
76613;DHT22;65507;48.454;-2.058;2024-01-15T10:30:11;7.40;82.20
76613;DHT22;65507;48.454;-2.058;2024-01-15T10:32:39;7.40;82.10
76613;DHT22;65507;48.454;-2.058;2024-01-15T10:35:07;7.40;82.20
76613;DHT22;65507;48.454;-2.058;2024-01-15T10:37:33;7.40;82.10
76613;DHT22;65507;48.454;-2.058;2024-01-15T10:40:02;7.50;82.10
76613;DHT22;65507;48.454;-2.058;2024-01-15T10:42:30;7.50;82.20
76613;DHT22;65507;48.454;-2.058;2024-01-15T10:44:56;7.60;82.00
76613;DHT22;65507;48.454;-2.058;2024-01-15T10:47:23;7.60;81.90
76613;DHT22;65507;48.454;-2.058;2024-01-15T10:49:49;7.70;81.80
76613;DHT22;65507;48.454;-2.058;2024-01-15T10:52:15;7.70;81.70
76613;DHT22;65507;48.454;-2.058;2024-01-15T10:54:41;7.80;81.60
76613;DHT22;65507;48.454;-2.058;2024-01-15T10:57:08;7.80;81.50
76613;DHT22;65507;48.454;-2.058;2024-01-15T10:59:34;7.80;81.40
76613;DHT22;65507;48.454;-2.058;2024-01-15T11:02:01;7.80;81.40
76613;DHT22;65507;48.454;-2.058;2024-01-15T11:04:27;7.80;81.40
76613;DHT22;65507;48.454;-2.058;2024-01-15T11:06:55;7.90;81.40
76613;DHT22;65507;48.454;-2.058;2024-01-15T11:09:21;7.90;81.30
76613;DHT22;65507;48.454;-2.058;2024-01-15T11:11:47;7.90;81.10
76613;DHT22;65507;48.454;-2.058;2024-01-15T11:14:42;7.90;81.00
76613;DHT22;65507;48.454;-2.058;2024-01-15T11:17:11;7.90;81.10
76613;DHT22;65507;48.454;-2.058;2024-01-15T11:19:48;7.90;81.40
76613;DHT22;65507;48.454;-2.058;2024-01-15T11:24:57;8.10;81.10
76613;DHT22;65507;48.454;-2.058;2024-01-15T11:27:45;8.60;81.00
76613;DHT22;65507;48.454;-2.058;2024-01-15T11:30:18;8.30;80.50
76613;DHT22;65507;48.454;-2.058;2024-01-15T11:32:45;8.40;80.50
76613;DHT22;65507;48.454;-2.058;2024-01-15T11:35:13;8.50;80.40
76613;DHT22;65507;48.454;-2.058;2024-01-15T11:40:21;8.60;80.00
76613;DHT22;65507;48.454;-2.058;2024-01-15T11:42:48;8.60;79.90
76613;DHT22;65507;48.454;-2.058;2024-01-15T11:45:19;8.70;79.90
76613;DHT22;65507;48.454;-2.058;2024-01-15T11:50:14;8.80;79.50
76613;DHT22;65507;48.454;-2.058;2024-01-15T11:52:44;8.80;79.40
76613;DHT22;65507;48.454;-2.058;2024-01-15T11:55:35;8.80;79.40
76613;DHT22;65507;48.454;-2.058;2024-01-15T11:58:02;8.80;79.40
76613;DHT22;65507;48.454;-2.058;2024-01-15T12:00:28;8.70;79.60
76613;DHT22;65507;48.454;-2.058;2024-01-15T12:02:54;8.70;79.60
76613;DHT22;65507;48.454;-2.058;2024-01-15T12:05:22;8.70;79.70
76613;DHT22;65507;48.454;-2.058;2024-01-15T12:07:49;8.70;79.60
76613;DHT22;65507;48.454;-2.058;2024-01-15T12:10:17;8.80;79.60
76613;DHT22;65507;48.454;-2.058;2024-01-15T12:13:05;8.80;79.50
76613;DHT22;65507;48.454;-2.058;2024-01-15T12:15:31;8.80;79.40
76613;DHT22;65507;48.454;-2.058;2024-01-15T12:17:59;8.90;79.40
76613;DHT22;65507;48.454;-2.058;2024-01-15T12:20:27;8.90;79.30
76613;DHT22;65507;48.454;-2.058;2024-01-15T12:22:53;8.90;79.30
76613;DHT22;65507;48.454;-2.058;2024-01-15T12:25:21;9.00;79.20
76613;DHT22;65507;48.454;-2.058;2024-01-15T12:27:47;9.00;79.00
76613;DHT22;65507;48.454;-2.058;2024-01-15T12:30:14;9.00;78.90
76613;DHT22;65507;48.454;-2.058;2024-01-15T12:32:41;9.00;78.90
76613;DHT22;65507;48.454;-2.058;2024-01-15T12:35:13;8.90;78.80
76613;DHT22;65507;48.454;-2.058;2024-01-15T12:37:42;8.80;78.90
76613;DHT22;65507;48.454;-2.058;2024-01-15T12:40:10;8.80;79.10
76613;DHT22;65507;48.454;-2.058;2024-01-15T12:42:37;8.70;79.20
76613;DHT22;65507;48.454;-2.058;2024-01-15T12:45:05;8.70;79.30
76613;DHT22;65507;48.454;-2.058;2024-01-15T12:47:31;8.70;79.30
76613;DHT22;65507;48.454;-2.058;2024-01-15T12:49:57;8.70;79.30
76613;DHT22;65507;48.454;-2.058;2024-01-15T12:52:27;8.70;79.10
76613;DHT22;65507;48.454;-2.058;2024-01-15T12:54:53;8.80;78.90
76613;DHT22;65507;48.454;-2.058;2024-01-15T12:57:19;8.90;78.60
76613;DHT22;65507;48.454;-2.058;2024-01-15T12:59:45;9.00;78.40
76613;DHT22;65507;48.454;-2.058;2024-01-15T13:02:14;9.00;78.10
76613;DHT22;65507;48.454;-2.058;2024-01-15T13:04:40;9.10;77.90
76613;DHT22;65507;48.454;-2.058;2024-01-15T13:07:06;9.10;77.90
76613;DHT22;65507;48.454;-2.058;2024-01-15T13:09:33;9.20;77.70
76613;DHT22;65507;48.454;-2.058;2024-01-15T13:11:59;9.20;77.50
76613;DHT22;65507;48.454;-2.058;2024-01-15T13:14:24;9.20;77.40
76613;DHT22;65507;48.454;-2.058;2024-01-15T13:16:50;9.20;77.50
76613;DHT22;65507;48.454;-2.058;2024-01-15T13:19:16;9.20;77.40
76613;DHT22;65507;48.454;-2.058;2024-01-15T13:21:42;9.20;77.30
76613;DHT22;65507;48.454;-2.058;2024-01-15T13:24:08;9.20;77.20
76613;DHT22;65507;48.454;-2.058;2024-01-15T13:26:35;9.20;77.30
76613;DHT22;65507;48.454;-2.058;2024-01-15T13:29:04;9.10;77.30
76613;DHT22;65507;48.454;-2.058;2024-01-15T13:31:33;9.10;77.30
76613;DHT22;65507;48.454;-2.058;2024-01-15T13:33:59;9.00;77.40
76613;DHT22;65507;48.454;-2.058;2024-01-15T13:36:25;8.90;77.50
76613;DHT22;65507;48.454;-2.058;2024-01-15T13:38:52;8.80;77.60
76613;DHT22;65507;48.454;-2.058;2024-01-15T13:41:19;8.80;77.70
76613;DHT22;65507;48.454;-2.058;2024-01-15T13:43:55;8.70;77.70
76613;DHT22;65507;48.454;-2.058;2024-01-15T13:46:24;8.60;77.70
76613;DHT22;65507;48.454;-2.058;2024-01-15T13:48:52;8.60;77.70
76613;DHT22;65507;48.454;-2.058;2024-01-15T13:51:18;8.60;77.70
76613;DHT22;65507;48.454;-2.058;2024-01-15T13:53:43;8.70;77.80
76613;DHT22;65507;48.454;-2.058;2024-01-15T13:56:09;8.50;77.60
76613;DHT22;65507;48.454;-2.058;2024-01-15T13:58:36;8.40;77.50
76613;DHT22;65507;48.454;-2.058;2024-01-15T14:01:02;8.40;77.70
76613;DHT22;65507;48.454;-2.058;2024-01-15T14:03:31;8.40;77.70
76613;DHT22;65507;48.454;-2.058;2024-01-15T14:05:57;8.40;77.50
76613;DHT22;65507;48.454;-2.058;2024-01-15T14:08:23;8.40;77.60
76613;DHT22;65507;48.454;-2.058;2024-01-15T14:10:49;8.50;77.40
76613;DHT22;65507;48.454;-2.058;2024-01-15T14:13:15;8.50;77.20
76613;DHT22;65507;48.454;-2.058;2024-01-15T14:15:41;8.50;76.90
76613;DHT22;65507;48.454;-2.058;2024-01-15T14:18:06;8.50;76.90
76613;DHT22;65507;48.454;-2.058;2024-01-15T14:20:33;8.50;76.80
76613;DHT22;65507;48.454;-2.058;2024-01-15T14:22:58;8.40;76.60
76613;DHT22;65507;48.454;-2.058;2024-01-15T14:25:24;8.40;76.50
76613;DHT22;65507;48.454;-2.058;2024-01-15T14:27:50;8.40;76.50
76613;DHT22;65507;48.454;-2.058;2024-01-15T14:30:16;8.40;76.40
76613;DHT22;65507;48.454;-2.058;2024-01-15T14:32:44;8.40;76.30
76613;DHT22;65507;48.454;-2.058;2024-01-15T14:35:10;8.40;76.30
76613;DHT22;65507;48.454;-2.058;2024-01-15T14:37:39;8.40;76.20
76613;DHT22;65507;48.454;-2.058;2024-01-15T14:40:06;8.50;75.90
76613;DHT22;65507;48.454;-2.058;2024-01-15T14:42:36;8.50;75.60
76613;DHT22;65507;48.454;-2.058;2024-01-15T14:45:05;8.60;75.40
76613;DHT22;65507;48.454;-2.058;2024-01-15T14:47:37;8.50;75.20
76613;DHT22;65507;48.454;-2.058;2024-01-15T14:50:04;8.40;75.30
76613;DHT22;65507;48.454;-2.058;2024-01-15T14:52:30;8.50;75.50
76613;DHT22;65507;48.454;-2.058;2024-01-15T14:54:56;8.20;75.70
76613;DHT22;65507;48.454;-2.058;2024-01-15T14:57:22;8.10;75.80
76613;DHT22;65507;48.454;-2.058;2024-01-15T14:59:47;8.20;76.00
76613;DHT22;65507;48.454;-2.058;2024-01-15T15:02:13;8.00;75.90
76613;DHT22;65507;48.454;-2.058;2024-01-15T15:04:40;7.90;75.80
76613;DHT22;65507;48.454;-2.058;2024-01-15T15:07:07;7.80;75.90
76613;DHT22;65507;48.454;-2.058;2024-01-15T15:09:33;7.70;76.10
76613;DHT22;65507;48.454;-2.058;2024-01-15T15:11:58;7.60;76.10
76613;DHT22;65507;48.454;-2.058;2024-01-15T15:14:24;7.50;76.10
76613;DHT22;65507;48.454;-2.058;2024-01-15T15:16:50;7.40;76.00
76613;DHT22;65507;48.454;-2.058;2024-01-15T15:19:15;7.40;75.90
76613;DHT22;65507;48.454;-2.058;2024-01-15T15:21:46;7.30;75.70
76613;DHT22;65507;48.454;-2.058;2024-01-15T15:24:11;7.20;75.60
76613;DHT22;65507;48.454;-2.058;2024-01-15T15:26:37;7.20;75.60
76613;DHT22;65507;48.454;-2.058;2024-01-15T15:29:05;7.20;75.50
76613;DHT22;65507;48.454;-2.058;2024-01-15T15:31:31;7.10;75.30
76613;DHT22;65507;48.454;-2.058;2024-01-15T15:33:57;7.10;75.10